x

9075080 - Mackinaw City, Mi (macm4) Weather Station

8:54am - Mon 24th Nov 2014 All times are CST. -6 hours from GMT.

  • Wind
    13mph, 20mph gusts
  • Air Temp 41°f
  • Sea Pressure 979.7mb
  • 9075080 - Mackinaw City, Mi
  • 9075080 - Mackinaw City, Mi

More Historic Weather Station data

Upgrade to MSW Pro to gain access to the past 30 days of data for over 8000 Wavebouys and Weather Stations around the globe.

Join Pro

Comparision Forecast

View Surf forecast
   
Mon 11/24 8:54am 13 20 mph 979.7mb 41f
8:48am 13 20 mph 979.6mb 42f
8:42am 13 18 mph 979.5mb 42f
8:36am 13 21 mph 979.5mb 42f
8:30am 15 23 mph 979.4mb 42f
8:24am 17 22 mph 979.3mb 42f
8:18am 18 26 mph 979.1mb 43f
8:12am 15 22 mph 978.9mb 44f
8:06am 17 26 mph 978.9mb 44f
8:00am 15 23 mph 978.8mb 45f
7:54am 16 22 mph 978.7mb 45f
7:48am 13 21 mph 978.6mb 45f
7:42am 14 18 mph 978.5mb 45f
7:36am 16 22 mph 978.4mb 45f
7:30am 14 18 mph 978.3mb 45f
7:24am 14 18 mph 978.2mb 44f
7:18am 10 15 mph 978.2mb 44f
7:12am 9 14 mph 978.2mb 43f
7:06am 9 13 mph 978.2mb 43f
7:00am 7 10 mph 978.2mb 42f
6:54am 6 9 mph 978.2mb 42f
6:48am 7 10 mph 978.1mb 42f
6:42am 7 9 mph 978.1mb 42f
6:36am 7 8 mph 978mb 42f
6:30am 7 9 mph 978mb 42f
6:24am 6 7 mph 978mb 41f
6:18am 6 7 mph 978mb 41f
6:12am 5 6 mph 978mb 41f
6:06am 3 5 mph 978mb 41f
6:00am 3
mph
978mb 41f
5:54am 3
mph
978.1mb 41f
5:48am 2 3 mph 978.1mb 40f
5:42am 2
mph
978.2mb 40f
5:36am 2 5 mph 978.2mb 40f
5:30am 5 7 mph 978.3mb 40f
5:24am 6 7 mph 978.3mb 40f
5:18am 6 8 mph 978.4mb 41f
5:12am 8
mph
978.4mb 40f
5:06am 7 8 mph 978.5mb 40f
5:00am 7 8 mph 978.6mb 40f
4:54am 6 7 mph 978.8mb 40f
4:48am 6 7 mph 978.9mb 40f
4:42am 6 8 mph 979mb 40f
4:36am 7 8 mph 979.2mb 40f
4:30am 9 11 mph 979.2mb 41f
4:24am 9 11 mph 979.4mb 41f
4:18am 9 13 mph 979.5mb 41f
4:12am 13 14 mph 979.7mb 41f
4:06am 13 15 mph 979.8mb 41f
4:00am 14 16 mph 980mb 41f
3:54am 13 15 mph 980.1mb 41f
3:48am 14 16 mph 980.3mb 42f
3:42am 15 16 mph 980.4mb 42f
3:36am 14 17 mph 980.5mb 42f
3:30am 14 16 mph 980.6mb 42f
3:24am 15 17 mph 980.8mb 42f
3:18am 16 18 mph 980.9mb 42f
3:12am 17 22 mph 981.1mb 42f
3:06am 17 21 mph 981.2mb 42f
3:00am 17 23 mph 981.4mb 42f
2:54am 20 23 mph 981.7mb 42f
2:48am 20 23 mph 981.8mb 42f
2:42am 21 26 mph 982.1mb 42f
2:36am 20 22 mph 982.3mb 42f
2:30am 21 23 mph 982.6mb 42f
2:24am 18 21 mph 982.8mb 42f
2:18am 20 24 mph 983mb 42f
2:12am 18 22 mph 983.2mb 42f
2:06am 17 21 mph 983.5mb 42f
2:00am 20 23 mph 983.8mb 42f
1:54am 18 22 mph 984mb 42f
1:48am 21 23 mph 984.1mb 42f
1:42am 17 21 mph 984.4mb 42f
1:36am 20 23 mph 984.6mb 42f
1:30am 18 23 mph 984.7mb 42f
1:24am 22 25 mph 985.1mb 42f
1:18am 21 23 mph 985.2mb 42f
1:12am 20 26 mph 985.3mb 42f
1:06am 22 25 mph 985.5mb 42f
1:00am 17 22 mph 985.8mb 42f
12:54am 20 22 mph 986mb 42f
12:48am 20 24 mph 986.2mb 42f
12:42am 23 26 mph 986.5mb 42f
12:36am 22 26 mph 986.8mb 42f
12:30am 23 25 mph 987mb 42f
12:24am 22 23 mph 987.2mb 42f
12:18am 15 20 mph 987.5mb 41f
12:12am 17 18 mph 987.8mb 41f
12:06am 16 18 mph 988.2mb 41f
12:00am 16 18 mph 988.5mb 41f
Sun 11/23 11:54pm 15 17 mph 988.7mb 41f
11:48pm 14 15 mph 988.8mb 41f
11:42pm 13 14 mph 989mb 41f
11:36pm 14 15 mph 989.2mb 41f
11:30pm 15 17 mph 989.5mb 41f
11:24pm 14 17 mph 989.7mb 41f
11:18pm 15 17 mph 989.9mb 41f
11:12pm 13 15 mph 990.1mb 41f
11:06pm 14 15 mph 990.3mb 41f
11:00pm 13 14 mph 990.5mb 41f
10:54pm 14 15 mph 990.7mb 41f
10:48pm 15 16 mph 991mb 41f
10:42pm 15 16 mph 991.3mb 41f
10:36pm 14 15 mph 991.6mb 42f
10:30pm 15 16 mph 991.9mb 42f
10:24pm 14 16 mph 992.2mb 42f
10:18pm 14 16 mph 992.6mb 42f
10:12pm 15 16 mph 992.9mb 42f
10:06pm 16 17 mph 993.2mb 42f
10:00pm 14 15 mph 993.4mb 42f
9:54pm 14 15 mph 993.6mb 42f
9:48pm 14 15 mph 993.9mb 42f
9:42pm 14 16 mph 994.1mb 42f
9:36pm 15
mph
994.3mb 42f
9:30pm 14 15 mph 994.5mb 42f
9:24pm 13 14 mph 994.7mb 42f
9:18pm 14
mph
994.9mb 42f
9:12pm 14 15 mph 995.1mb 43f
9:06pm 14 15 mph 995.2mb 42f
9:00pm 13 14 mph 995.4mb 43f
8:54pm 13 14 mph 995.6mb 43f
8:48pm 13
mph
995.7mb 43f
8:42pm 11 13 mph 995.8mb 42f
8:36pm 11 13 mph 996mb 42f
8:30pm 10 11 mph 996.1mb 42f
8:24pm 8 10 mph 996.3mb 42f
8:18pm 8 11 mph 996.4mb 44f
8:12pm 9 14 mph 996.6mb 44f
8:06pm 11 14 mph 996.7mb 45f
8:00pm 10 15 mph 996.9mb 44f
7:54pm 11 14 mph 997mb 44f
7:48pm 10 13 mph 997.1mb -
7:42pm 10 13 mph 997.3mb 45f
7:36pm 10 14 mph 997.4mb 45f
7:30pm 9 13 mph 997.6mb 45f
7:24pm 10 14 mph 997.7mb 45f
7:18pm 9 11 mph 997.9mb 45f
7:12pm 9 11 mph 998mb 45f
7:06pm 8 10 mph 998.1mb 46f
7:00pm 7 11 mph 998.2mb 46f
6:54pm 1 5 mph 998.4mb 43f
6:48pm 5 8 mph 998.5mb 42f
6:42pm 7 8 mph 998.4mb 42f
6:36pm 7 10 mph 998.4mb 42f
6:30pm 8 10 mph 998.5mb 45f
6:24pm 8 10 mph 998.6mb 45f
6:18pm 9 11 mph 998.8mb 45f
6:12pm 8 10 mph 998.8mb 45f
6:06pm 8 11 mph 998.8mb 45f
6:00pm 7 9 mph 998.9mb 45f
5:54pm 3 7 mph 999.2mb 42f
5:48pm 6 8 mph 999.3mb 41f
5:42pm 7 9 mph 999.4mb 41f
5:36pm 8
mph
999.4mb 41f
5:30pm 8 10 mph 999.6mb 40f
5:24pm 10 11 mph 999.5mb 41f
5:18pm 9 13 mph 999.5mb 41f
5:12pm 10 11 mph 999.6mb 40f
5:06pm 9 10 mph 999.7mb 40f
4:54pm 9 10 mph 999.8mb 41f
4:48pm 10
mph
999.9mb 40f
4:42pm 9
mph
1000mb 41f
4:36pm 8
mph
1000mb 41f
4:30pm 8
mph
1000mb 41f
4:24pm 7 8 mph 1000.1mb 41f
4:18pm 8
mph
1000.2mb 41f
4:12pm 7 8 mph 1000.3mb 41f
4:06pm 8
mph
1000.4mb 41f
4:00pm 8 9 mph 1000.5mb 40f
3:54pm 9 10 mph 1000.6mb 41f
3:48pm 8 9 mph 1000.6mb 41f
3:42pm 8 9 mph 1000.7mb 41f
3:36pm 8 10 mph 1000.7mb 41f
3:30pm 9 10 mph 1000.7mb 42f
3:24pm 9
mph
1000.9mb 41f
3:18pm 9 10 mph 1000.9mb 41f
3:12pm 9 10 mph 1001mb 42f
3:06pm 9 10 mph 1001mb 42f
3:00pm 6 8 mph 1001.2mb 45f
2:54pm 6 8 mph 1001.4mb 45f
2:48pm 7 10 mph 1001.5mb 45f
2:42pm 8 11 mph 1001.6mb 46f
2:36pm 10 13 mph 1001.6mb 46f
2:30pm 8 9 mph 1001.7mb 46f
2:24pm 7 10 mph 1001.8mb 46f
2:18pm 10 13 mph 1001.8mb 47f
2:12pm 7 10 mph 1001.9mb 46f
2:06pm 7 9 mph 1001.9mb 46f
2:00pm 8 13 mph 1001.9mb 47f
1:54pm 9 13 mph 1002.1mb 47f
1:48pm 10 13 mph 1002.2mb 47f
1:42pm 10 14 mph 1002.3mb 47f
1:36pm 9 11 mph 1002.2mb 47f
1:30pm 10 15 mph 1002mb 47f
1:24pm 11 14 mph 1002mb 47f
1:18pm 11 16 mph 1002.3mb 47f
1:12pm 11 16 mph 1002.2mb 48f
1:06pm 11 14 mph 1002.3mb 48f
1:00pm 10 16 mph 1002.3mb 48f
12:54pm 9 11 mph 1002.3mb 47f
12:48pm 9 13 mph 1002.4mb 47f
12:42pm 9 11 mph 1002.5mb 47f
12:36pm 10 14 mph 1002.8mb 47f
12:30pm 13 15 mph 1002.9mb 47f
12:24pm 11 16 mph 1003.1mb 46f
12:18pm 10 13 mph 1003.2mb 45f
12:12pm 9 10 mph 1003.2mb 42f
12:06pm 8 9 mph 1003.3mb 42f
12:00pm 8 9 mph 1003.2mb 44f
11:54am 8 9 mph 1003.2mb 44f
11:48am 8 9 mph 1003.4mb 44f
11:42am 7 8 mph 1003.3mb 44f
11:36am 7
mph
1003.5mb 44f
11:30am 6 7 mph 1003.6mb 44f
11:24am 6 7 mph 1003.7mb 43f
11:18am 6 7 mph 1003.9mb 44f
11:12am 6 7 mph 1004.1mb 44f
11:06am 5 6 mph 1004.3mb 44f
11:00am 5 6 mph 1004.5mb 44f
10:54am 5 7 mph 1004.6mb 44f
10:48am 6 7 mph 1004.6mb 44f
10:42am 5 7 mph 1004.8mb 44f
10:36am 6 8 mph 1004.9mb 44f
10:30am 6 9 mph 1005mb 44f
10:24am 9 11 mph 1005.1mb 45f
10:18am 8 10 mph 1005.1mb 44f
10:12am 8 13 mph 1005.3mb 44f
10:06am 7 11 mph 1005.4mb 44f
10:00am 8 10 mph 1005.5mb 44f
9:54am 7 11 mph 1005.5mb 44f
9:48am 8 10 mph 1005.4mb 43f
9:42am 8 9 mph 1005.3mb 44f
9:36am 7 9 mph 1005.2mb 43f
9:30am 8 11 mph 1005.1mb 43f
9:24am 7 13 mph 1005.1mb 43f
9:18am 8 11 mph 1005.2mb 43f
9:12am 9 10 mph 1005.3mb 43f
9:06am 8 11 mph 1005.4mb 43f
8:54am 9 11 mph 1005.3mb 43f
8:48am 7 9 mph 1005.2mb 42f
8:42am 8 10 mph 1005.2mb 42f
8:36am 8 10 mph 1005.3mb 42f
8:30am 8 10 mph 1005.3mb 42f
8:24am 8 11 mph 1005.2mb 41f
8:18am 9 13 mph 1005.2mb 41f
8:12am 8 9 mph 1005.4mb 41f
8:06am 8 10 mph 1005.4mb 41f
8:00am 7 8 mph 1005.4mb 41f
7:54am 7 10 mph 1005.5mb 41f
7:48am 8 10 mph 1005.5mb 40f
7:42am 8 10 mph 1005.4mb 40f
7:36am 7 8 mph 1005.7mb 40f
7:30am 6 8 mph 1006mb 40f
7:24am 7 9 mph 1005.9mb 40f
7:18am 7 9 mph 1005.9mb 40f
7:12am 8 9 mph 1005.9mb 40f
7:06am 8 10 mph 1005.8mb 40f
7:00am 9 14 mph 1005.8mb 40f
6:54am 9 11 mph 1005.9mb 40f
6:48am 7
mph
1005.8mb 40f
6:42am 7 10 mph 1005.7mb 40f
6:36am 10 13 mph 1005.8mb 40f
6:30am 10 13 mph 1005.9mb 40f
6:24am 9 13 mph 1006.1mb 40f
6:18am 8 11 mph 1006.2mb 40f
6:12am 6 8 mph 1006.3mb 40f
6:06am 7 9 mph 1006.3mb 40f
5:54am 10 11 mph 1006.2mb 39f
5:48am 10 11 mph 1006.2mb 39f
5:42am 9 10 mph 1006.2mb 39f
5:36am 7 9 mph 1006.5mb 40f
5:30am 8 10 mph 1006.5mb 40f
5:24am 8 9 mph 1006.6mb 39f
5:18am 8 9 mph 1006.7mb 39f
5:12am 7 8 mph 1006.8mb 39f
5:06am 7 8 mph 1006.8mb 40f
4:54am 5 7 mph 1006.8mb 40f
4:48am 6 8 mph 1006.9mb 40f
4:42am 7 8 mph 1007mb 40f
4:36am 8 9 mph 1006.5mb 40f
4:30am 5 6 mph 1006.9mb 40f
4:24am 5 7 mph 1007mb 40f
4:18am 6 7 mph 1007.2mb 40f
4:12am 5 7 mph 1007.3mb 40f
4:06am 6 7 mph 1007.2mb 40f
4:00am 7 8 mph 1007mb 40f
3:54am 6 7 mph 1007mb 40f
3:48am 6 7 mph 1006.9mb 40f
3:42am 6 8 mph 1006.9mb 40f
3:36am 6 8 mph 1007.1mb 40f
3:30am 7 8 mph 1007.2mb 39f
3:24am 8 9 mph 1007.2mb 39f
3:18am 8 10 mph 1007.2mb 39f
3:12am 7 9 mph 1007.4mb 39f
3:06am 6 7 mph 1007.4mb 39f
3:00am 5 7 mph 1007.4mb 39f
2:54am 5 7 mph 1007.4mb 39f
2:48am 6 7 mph 1007.6mb 39f
2:42am 6 7 mph 1007.7mb 39f
2:36am 7 8 mph 1007.7mb 39f
2:30am 7 8 mph 1007.8mb 38f
2:24am 6 7 mph 1007.9mb 38f
2:18am 5 6 mph 1008mb 38f
2:12am 5 6 mph 1007.8mb 38f
2:06am 5 6 mph 1008mb 39f
2:00am 6 7 mph 1008mb 38f
1:54am 7 8 mph 1008mb 38f
1:48am 8 9 mph 1008mb 39f
1:42am 8 10 mph 1007.9mb 39f
1:36am 9 10 mph 1007.9mb 39f
1:30am 8 9 mph 1008mb 39f
1:24am 9 10 mph 1008.1mb 39f
1:18am 7 8 mph 1008.1mb 39f
1:12am 5
mph
1008.2mb 38f
1:06am 3
mph
1008.2mb 38f
1:00am 2 3 mph 1008.3mb 38f
12:54am 2 5 mph 1008.5mb 38f
12:48am 3 6 mph 1008.6mb 38f
12:42am 5 6 mph 1008.6mb 38f
12:36am 3 5 mph 1008.5mb 38f
12:30am 3 5 mph 1008.6mb 38f
12:24am 2 3 mph 1008.7mb 38f
12:18am 3 5 mph 1008.6mb 38f
12:12am 3
mph
1008.6mb 38f
12:06am 2
mph
1008.5mb 38f
12:00am 1 2 mph 1008.6mb 38f
Sat 11/22 11:54pm  -  2 mph 1008.5mb 38f
11:48pm 2 5 mph 1008.6mb 38f
11:42pm 3 5 mph 1008.6mb 38f
11:36pm 5 6 mph 1008.5mb 38f
11:30pm 6
mph
1008.5mb 38f
11:24pm 5 6 mph 1008.5mb 38f
11:18pm 6
mph
1008.6mb 38f
11:12pm 5
mph
1008.6mb 38f
11:06pm 5
mph
1008.5mb 38f
11:00pm 5
mph
1008.5mb 38f
10:54pm 5
mph
1008.4mb 38f
10:48pm 3
mph
1008.5mb 38f
10:42pm 2 3 mph 1008.5mb 38f
10:36pm 1 6 mph 1008.3mb 39f
10:30pm 2 3 mph 1008.3mb 39f
10:24pm 3 7 mph 1008.3mb 39f
10:18pm 3 5 mph 1008.2mb 39f
10:12pm 3 6 mph 1008.3mb 39f
10:06pm 2 3 mph 1008.3mb 39f
10:00pm 2 5 mph 1008.3mb 39f
9:54pm 3 5 mph 1008.2mb 39f
9:48pm 3 7 mph 1008.1mb 39f
9:42pm 3 8 mph 1008.1mb 39f
9:36pm 7 10 mph 1008.1mb 39f
9:30pm 6 10 mph 1008.1mb 39f
9:24pm 7 8 mph 1008.1mb 39f
9:18pm 6 9 mph 1008mb 39f
9:12pm 6 9 mph 1008mb 39f
9:06pm 7 10 mph 1007.9mb 39f
9:00pm 8 11 mph 1007.7mb 39f
8:54pm 8 11 mph 1007.7mb 39f
8:48pm 7 10 mph 1007.6mb 39f
8:42pm 7 9 mph 1007.6mb 39f
8:36pm 6 10 mph 1007.6mb 39f
8:30pm 6 8 mph 1007.7mb 39f
8:24pm 7 13 mph 1007.7mb 39f
8:18pm 6 10 mph 1007.7mb 39f
8:12pm 6 10 mph 1007.6mb 39f
8:06pm 8 14 mph 1007.5mb 40f
8:00pm 9 15 mph 1007.5mb 40f
7:54pm 9 14 mph 1007.6mb 40f
7:48pm 13 17 mph 1007.6mb 40f
7:42pm 10 16 mph 1007.7mb 40f
7:36pm 8 13 mph 1007.6mb 40f
7:30pm 9 13 mph 1007.5mb 40f
7:24pm 9 14 mph 1007.5mb 40f
7:18pm 8 13 mph 1007.6mb 40f
7:12pm 6 9 mph 1007.5mb 40f
7:06pm 6 8 mph 1007.5mb 40f
7:00pm 6 9 mph 1007.4mb 40f
6:54pm 7 9 mph 1007.3mb 40f
6:48pm 8 14 mph 1007.3mb 40f
6:42pm 7 14 mph 1007.3mb 40f
6:36pm 10 15 mph 1007.2mb 40f
6:30pm 9 11 mph 1007.2mb 40f
6:24pm 10 16 mph 1007.1mb 40f
6:18pm 11 15 mph 1007.1mb 40f
6:12pm 10 18 mph 1007.1mb 40f
6:06pm 13 21 mph 1007.1mb 40f
6:00pm 14 17 mph 1007.1mb 40f
5:54pm 9 22 mph 1007mb 40f
5:48pm 10 17 mph 1007mb 40f
5:36pm 15 18 mph 1007mb 40f
5:30pm 15 20 mph 1006.9mb 40f
5:24pm 15 21 mph 1006.9mb 40f
5:18pm 15 21 mph 1006.9mb 40f
5:12pm 14 17 mph 1006.8mb 40f
5:06pm 14 18 mph 1006.8mb 40f
5:00pm 16 22 mph 1006.8mb 40f
4:54pm 14 20 mph 1006.7mb 40f
4:48pm 15 22 mph 1006.7mb 40f
4:42pm 14 18 mph 1006.7mb 40f
4:36pm 11 16 mph 1006.7mb 40f
4:30pm 15 21 mph 1006.7mb 40f
4:24pm 13 21 mph 1006.7mb 40f
4:18pm 14 21 mph 1006.7mb 40f
4:12pm 14 22 mph 1006.7mb 40f
4:06pm 13 18 mph 1006.7mb 40f
4:00pm 13 17 mph 1006.7mb 40f
3:54pm 16 23 mph 1006.7mb 40f
3:48pm 16 24 mph 1006.7mb 40f
3:42pm 14 25 mph 1006.7mb 41f
3:36pm 15 24 mph 1006.8mb 41f
3:30pm 15 22 mph 1006.8mb 40f
3:24pm 11 16 mph 1006.8mb 40f
3:18pm 13 18 mph 1006.7mb 40f
3:12pm 16 21 mph 1006.7mb 40f
3:06pm 11 17 mph 1006.7mb 40f
3:00pm 13 16 mph 1006.6mb 40f
2:54pm 14 18 mph 1006.5mb 40f
2:48pm 13 22 mph 1006.6mb 40f
2:42pm 13 21 mph 1006.5mb 40f
2:36pm 13 20 mph 1006.6mb 40f
2:30pm 11 21 mph 1006.6mb 40f
2:24pm 13 18 mph 1006.6mb 40f
2:18pm 11 16 mph 1006.6mb 40f
2:12pm 15 23 mph 1006.6mb 40f
2:06pm 16 22 mph 1006.5mb 40f
2:00pm 16 21 mph 1006.5mb 40f
1:54pm 13 20 mph 1006.5mb 40f
1:48pm 17 23 mph 1006.5mb 40f
1:42pm 15 22 mph 1006.5mb 40f
1:36pm 18 24 mph 1006.5mb 40f
1:30pm 16 23 mph 1006.5mb 40f
1:24pm 17 23 mph 1006.5mb 40f
1:18pm 20 29 mph 1006.4mb 40f
1:12pm 21 28 mph 1006.4mb 40f
1:06pm 16 29 mph 1006.4mb 40f
1:00pm 16 31 mph 1006.4mb 40f
12:54pm 15 26 mph 1006.5mb 40f
12:48pm 17 24 mph 1006.4mb 40f
12:42pm 16 28 mph 1006.4mb 40f
12:36pm 18 25 mph 1006.5mb 40f
12:30pm 18 30 mph 1006.4mb 40f
12:24pm 22 34 mph 1006.5mb 40f
12:18pm 21 31 mph 1006.4mb 40f
12:12pm 16 28 mph 1006.5mb 39f
12:06pm 22 31 mph 1006.4mb 40f
12:00pm 23 32 mph 1006.6mb 40f
11:54am 21 28 mph 1006.7mb 39f
11:48am 15 24 mph 1006.7mb 39f
11:42am 18 24 mph 1006.9mb 39f
11:36am 20 28 mph 1006.9mb 39f
11:30am 16 28 mph 1007.1mb 39f
11:24am 17 29 mph 1007.2mb 39f
11:18am 15 26 mph 1007.3mb 39f
11:12am 16 31 mph 1007.3mb 39f
11:06am 18 26 mph 1007.3mb 39f
11:00am 18 23 mph 1007.4mb 39f
10:54am 18 25 mph 1007.6mb 39f
10:48am 18 23 mph 1007.7mb 39f
10:42am 15 29 mph 1007.6mb 39f
10:36am 18 25 mph 1007.7mb 39f
10:30am 22 26 mph 1007.9mb 39f
10:24am 16 28 mph 1008mb 39f
10:18am 20 28 mph 1008.1mb 39f
10:12am 20 26 mph 1008.1mb 39f
10:06am 21 28 mph 1008.2mb 39f
10:00am 21 30 mph 1008.4mb 39f
9:54am 16 28 mph 1008.6mb 38f
9:48am 21 29 mph 1008.6mb 38f
9:42am 21 28 mph 1008.6mb 38f
9:36am 16 29 mph 1008.6mb 38f
9:30am 16 25 mph 1008.5mb 38f
9:24am 16 24 mph 1008.5mb 38f
9:18am 17 23 mph 1008.5mb 37f
9:12am 16 23 mph 1008.7mb 37f
9:06am 18 22 mph 1008.8mb 37f
9:00am 20 26 mph 1008.9mb 37f
8:54am 17 23 mph 1009mb 37f
8:48am 20 26 mph 1009.2mb 37f
8:42am 18 25 mph 1009.2mb 37f
8:36am 17 23 mph 1009.3mb 37f
8:30am 14 23 mph 1009.2mb 37f
8:24am 15 21 mph 1009.3mb 37f
8:18am 17 22 mph 1009.5mb 37f
8:12am 18 25 mph 1009.6mb 37f
8:06am 14 20 mph 1009.6mb 37f
8:00am 15 21 mph 1009.6mb 37f
7:54am 15 21 mph 1009.6mb 37f
7:48am 15 22 mph 1009.6mb 37f
7:42am 17 22 mph 1009.7mb 37f
7:36am 15 20 mph 1009.8mb 37f
7:30am 11 18 mph 1009.8mb 37f
7:24am 16 21 mph 1009.8mb 37f
7:18am 11 17 mph 1009.9mb 36f
7:12am 13 16 mph 1009.9mb 36f
7:06am 11 14 mph 1010mb 36f
7:00am 10 16 mph 1010mb 36f
6:54am 13 18 mph 1010mb 36f
6:48am 14 18 mph 1010mb 36f
6:42am 15 20 mph 1009.8mb 36f
6:36am 14 22 mph 1009.8mb 36f
6:30am 16 24 mph 1009.9mb 36f
6:24am 16 23 mph 1009.9mb 36f
6:18am 16 22 mph 1010mb 36f
6:12am 16 24 mph 1010mb 36f
6:06am 17 24 mph 1010.1mb 36f
6:00am 15 22 mph 1010.1mb 36f
5:54am 15 21 mph 1010mb 35f
5:48am 17 25 mph 1010.1mb 35f
5:42am 17 22 mph 1010.2mb 35f
5:36am 15 22 mph 1010.3mb 35f
5:30am 15 23 mph 1010.4mb 35f
5:24am 20 24 mph 1010.4mb 35f
5:18am 18 25 mph 1010.5mb 35f
5:12am 14 21 mph 1010.6mb 35f
5:06am 20 26 mph 1010.6mb 35f
5:00am 22 29 mph 1010.6mb 35f
4:54am 17 24 mph 1010.8mb 35f
4:48am 18 24 mph 1010.8mb 36f
4:42am 14 26 mph 1010.8mb 35f
4:36am 18 26 mph 1010.8mb 36f
4:30am 24 32 mph 1010.8mb 36f
4:24am 21 30 mph 1010.8mb 35f
4:18am 22 28 mph 1010.9mb 36f
4:12am 21 28 mph 1011mb 35f
4:06am 22 31 mph 1011mb 36f
4:00am 20 29 mph 1011mb 35f
3:54am 22 26 mph 1010.9mb 35f
3:48am 21 28 mph 1011.1mb 35f
3:42am 20 25 mph 1011.3mb 35f
3:36am 18 23 mph 1011.4mb 35f
3:30am 17 24 mph 1011.5mb 35f
3:24am 16 25 mph 1011.5mb 35f
3:18am 18 24 mph 1011.6mb 35f
3:12am 18 29 mph 1011.7mb 35f
3:06am 18 25 mph 1011.8mb 35f
2:54am 17 21 mph 1011.7mb 34f
2:48am 17 23 mph 1011.8mb 34f
2:42am 11 17 mph 1012.1mb 33f
2:36am 14 20 mph 1012.2mb 33f
2:30am 13 18 mph 1012.3mb 33f
2:24am 10 15 mph 1012.6mb 33f
2:18am 11 15 mph 1012.8mb 33f
2:12am 11 16 mph 1012.8mb 33f
2:06am 11 18 mph 1013mb 33f
2:00am 13 21 mph 1013.1mb 33f
1:54am 13 21 mph 1013.2mb 33f
1:48am 14 21 mph 1013.3mb 33f
1:42am 13 22 mph 1013.3mb 33f
1:36am 16 21 mph 1013.4mb 33f
1:30am 16 23 mph 1013.4mb 32f
1:24am 11 18 mph 1013.6mb 32f
1:18am 14 21 mph 1013.5mb 32f
1:12am 11 18 mph 1013.6mb 31f
1:06am 14 18 mph 1013.7mb 31f
1:00am 15 20 mph 1013.8mb 31f
12:54am 16 23 mph 1014mb 31f
12:48am 14 22 mph 1014.1mb 31f
12:42am 15 25 mph 1014.2mb 31f
12:36am 16 28 mph 1014.3mb 31f
12:30am 22 28 mph 1014.4mb 31f
12:24am 18 25 mph 1014.5mb 31f
12:18am 21 26 mph 1014.6mb 31f
12:12am 16 24 mph 1014.6mb 31f
12:06am 13 20 mph 1014.8mb 30f
12:00am 14 20 mph 1014.8mb 30f
Fri 11/21 11:54pm 11 17 mph 1014.9mb 30f
11:48pm 14 21 mph 1015mb 30f
11:42pm 14 20 mph 1015mb 29f
11:36pm 14 20 mph 1015.1mb 29f
11:30pm 14 21 mph 1015.2mb 29f
11:24pm 14 20 mph 1015.2mb 29f
11:18pm 15 21 mph 1015.3mb 29f
11:12pm 15 26 mph 1015.4mb 29f
11:06pm 15 23 mph 1015.5mb 29f
11:00pm 15 22 mph 1015.6mb 29f
10:54pm 17 21 mph 1015.7mb 30f
10:48pm 16 23 mph 1015.7mb 29f
10:42pm 14 22 mph 1015.8mb 29f
10:36pm 13 20 mph 1016mb 29f
10:30pm 16 23 mph 1016.1mb 29f
10:24pm 15 22 mph 1016.2mb 29f
10:18pm 15 22 mph 1016.4mb 29f
10:12pm 13 20 mph 1016.5mb 29f
10:06pm 16 20 mph 1016.7mb 29f
10:00pm 14 23 mph 1016.8mb 29f
9:54pm 15 18 mph 1016.9mb 29f
9:48pm 14 23 mph 1016.9mb 29f
9:42pm 14 18 mph 1017mb 29f
9:36pm 14 20 mph 1017.2mb 28f
9:30pm 16 21 mph 1017.3mb 28f
9:24pm 15 20 mph 1017.4mb 28f
9:18pm 14 21 mph 1017.4mb 28f
9:12pm 17 25 mph 1017.4mb 28f
9:06pm 18 24 mph 1017.6mb 28f
9:00pm 15 22 mph 1017.7mb 28f
8:54pm 14 22 mph 1017.9mb 28f
8:48pm 20 25 mph 1018mb -
8:42pm 14 20 mph 1018.1mb 28f
8:36pm 15 20 mph 1018.2mb 28f
8:30pm 15 22 mph 1018.3mb 28f
8:24pm 16 21 mph 1018.5mb 28f
8:18pm 15 23 mph 1018.7mb 28f
8:12pm 17 22 mph 1018.8mb 28f
8:06pm 16 22 mph 1018.9mb 28f
8:00pm 18 24 mph 1019.1mb 28f
7:54pm 16 21 mph 1019.2mb 27f
7:48pm 11 17 mph 1019.5mb 27f
7:42pm 14 21 mph 1019.6mb 27f
7:36pm 16 22 mph 1019.7mb 27f
7:30pm 14 20 mph 1019.9mb 27f
7:24pm 15 20 mph 1019.9mb 27f
7:18pm 13 16 mph 1019.9mb 27f
7:12pm 14 17 mph 1020mb 27f
7:06pm 13 18 mph 1020.1mb 27f
7:00pm 11 16 mph 1020.1mb 27f
6:54pm 11 16 mph 1020.2mb 27f
6:48pm 11 14 mph 1020.3mb 27f
6:42pm 10 15 mph 1020.4mb 27f
6:36pm 11 20 mph 1020.5mb 27f
6:30pm 13 17 mph 1020.7mb 27f
6:24pm 11 18 mph 1020.7mb 26f
6:18pm 13 16 mph 1020.9mb 26f
6:12pm 14 22 mph 1021mb 26f
6:06pm 14 16 mph 1021.2mb 26f
6:00pm 11 17 mph 1021.3mb 26f
5:54pm 13 15 mph 1021.4mb 26f
5:48pm 14 18 mph 1021.5mb 26f
5:42pm 10 14 mph 1021.6mb 26f
5:36pm 9 15 mph 1021.7mb 26f
5:30pm 11 15 mph 1021.8mb 26f
5:24pm 11 15 mph 1021.9mb 26f
5:18pm 9 16 mph 1022mb 27f
5:12pm 11 16 mph 1022.1mb 27f
5:06pm 11 17 mph 1022.1mb 27f
5:00pm 14 17 mph 1022.1mb 27f
4:54pm 14 16 mph 1022.3mb 27f
4:48pm 14 17 mph 1022.3mb 27f
4:42pm 11 15 mph 1022.3mb 27f
4:36pm 10 16 mph 1022.4mb 27f
4:30pm 9 14 mph 1022.5mb 27f
4:18pm 8 13 mph 1022.6mb 27f
4:12pm 11 16 mph 1022.5mb 27f
4:06pm 10 15 mph 1022.5mb 27f
4:00pm 11 17 mph 1022.6mb 27f
3:54pm 13 15 mph 1022.6mb 27f
3:48pm 13 15 mph 1022.7mb 27f
3:42pm 16 22 mph 1022.7mb 27f
3:36pm 15 23 mph 1022.7mb 27f
3:30pm 15 21 mph 1022.8mb 27f
3:24pm 15 18 mph 1022.8mb 28f
3:18pm 13 17 mph 1022.9mb 28f
3:12pm 13 22 mph 1023mb 28f
3:06pm 15 22 mph 1023mb 28f
3:00pm 17 22 mph 1023.1mb 28f
2:54pm 16 22 mph 1023.2mb 28f
2:48pm 13 20 mph 1023.2mb 28f
2:42pm 17 24 mph 1023.3mb 28f
2:36pm 16 23 mph 1023.2mb 27f
2:30pm 17 23 mph 1023.3mb 27f
2:24pm 15 18 mph 1023.3mb 27f
2:18pm 16 22 mph 1023.4mb 27f
2:12pm 14 22 mph 1023.4mb 27f
2:06pm 13 17 mph 1023.5mb 27f
2:00pm 13 18 mph 1023.5mb 27f
1:54pm 14 18 mph 1023.5mb 27f
1:48pm 14 18 mph 1023.6mb 27f
1:42pm 15 25 mph 1023.7mb 27f
1:36pm 18 23 mph 1023.7mb 27f
1:30pm 20 28 mph 1023.7mb 27f
1:24pm 18 24 mph 1023.9mb 27f
1:18pm 18 25 mph 1023.9mb 27f
1:12pm 22 26 mph 1023.8mb 27f
1:06pm 20 24 mph 1024mb 27f
1:00pm 20 28 mph 1024.1mb 26f
12:54pm 21 24 mph 1024.1mb 27f
12:48pm 20 25 mph 1024.1mb 27f
12:42pm 18 23 mph 1024.3mb 26f
12:36pm 13 18 mph 1024.3mb 27f
12:30pm 18 25 mph 1024.3mb 26f
12:24pm 14 20 mph 1024.3mb 26f
12:18pm 15 20 mph 1024.4mb 26f
12:12pm 14 22 mph 1024.5mb 26f
12:06pm 16 22 mph 1024.4mb 26f
12:00pm 14 22 mph 1024.4mb 26f
11:54am 16 23 mph 1024.6mb 26f
11:48am 11 22 mph 1024.6mb 26f
11:42am 15 18 mph 1024.7mb 26f
11:36am 14 18 mph 1024.7mb 25f
11:30am 10 15 mph 1024.8mb 25f
11:24am 14 20 mph 1024.9mb 25f
11:18am 14 21 mph 1024.9mb 25f
11:12am 11 20 mph 1025mb 25f
11:06am 13 20 mph 1025mb 25f
11:00am 14 18 mph 1025.1mb 25f
10:54am 13 18 mph 1025.1mb 25f
10:48am 10 20 mph 1025.2mb 25f
10:42am 17 22 mph 1025.3mb 24f
10:36am 13 22 mph 1025.3mb 25f
10:30am 15 20 mph 1025.4mb 24f
10:24am 13 22 mph 1025.5mb 25f
10:18am 13 18 mph 1025.4mb 24f
10:12am 11 17 mph 1025.5mb 24f
10:06am 14 18 mph 1025.6mb 24f
10:00am 9 17 mph 1025.5mb 24f
9:54am 10 17 mph 1025.4mb 24f
9:48am 15 18 mph 1025.4mb 24f
9:42am 8 20 mph 1025.4mb 24f
9:36am 10 15 mph 1025.5mb 24f
9:30am 10 17 mph 1025.3mb 24f
9:24am 11 20 mph 1025.3mb 24f
9:18am 11 15 mph 1025.3mb 23f
9:12am 8 13 mph 1025.3mb 23f
9:06am 10 15 mph 1025.3mb 23f
9:00am 11 16 mph 1025.2mb 23f
8:54am 11 17 mph 1025.3mb 23f
8:48am 14 17 mph 1025.3mb 23f
8:42am 14 18 mph 1025.2mb 23f
8:36am 9 11 mph 1025.3mb 23f
8:30am 8 16 mph 1025.1mb 23f
8:24am 13 16 mph 1025.1mb 23f
8:18am 11 18 mph 1025mb 23f
8:12am 14 17 mph 1025mb 23f
8:06am 11 16 mph 1024.9mb 23f
8:00am 14 20 mph 1024.9mb 23f
7:54am 9 14 mph 1024.9mb 23f
7:48am 13 20 mph 1024.8mb 23f
7:42am 11 18 mph 1024.7mb 23f
7:36am 13 20 mph 1024.6mb 23f
7:30am 13 18 mph 1024.6mb 23f
7:24am 10 16 mph 1024.5mb 23f
7:18am 13 18 mph 1024.3mb 23f
7:12am 13 18 mph 1024.3mb 23f
7:06am 13 17 mph 1024.2mb 23f
7:00am 10 18 mph 1024.1mb 22f
6:54am 10 18 mph 1023.9mb 22f
6:48am 13 20 mph 1023.9mb 22f
6:42am 11 17 mph 1023.8mb 22f
6:36am 13 17 mph 1023.8mb 22f
6:30am 13 20 mph 1023.7mb 22f
6:24am 11 21 mph 1023.6mb 22f
6:18am 13 18 mph 1023.7mb 22f
6:12am 15 18 mph 1023.6mb 22f
6:06am 14 18 mph 1023.5mb 22f
6:00am 13 16 mph 1023.4mb 22f
5:54am 9 15 mph 1023.4mb 22f
5:48am 11 16 mph 1023.2mb 22f
5:42am 13 17 mph 1023.2mb 22f
5:36am 11 16 mph 1023.2mb 22f
5:30am 10 16 mph 1023.1mb 22f
5:24am 14 20 mph 1023mb 22f
5:18am 11 21 mph 1023mb 22f
5:12am 13 21 mph 1022.9mb 22f
5:06am 10 16 mph 1022.9mb 21f
5:00am 15 21 mph 1022.8mb 21f
4:54am 13 16 mph 1022.7mb 21f
4:48am 11 18 mph 1022.7mb 21f
4:42am 11 18 mph 1022.6mb 21f
4:36am 13 20 mph 1022.5mb 22f
4:30am 10 15 mph 1022.3mb 21f
4:24am 11 21 mph 1022.3mb 21f
4:18am 9 16 mph 1022.3mb 21f
4:12am 11 15 mph 1022.3mb 21f
4:06am 9 18 mph 1022.2mb 21f
4:00am 10 21 mph 1022.1mb 20f
3:54am 11 16 mph 1022mb 20f
3:48am 14 18 mph 1021.9mb 20f
3:42am 14 18 mph 1021.8mb 20f
3:36am 10 16 mph 1021.7mb 20f
3:30am 11 15 mph 1021.7mb 20f
3:24am 14 20 mph 1021.6mb 20f
3:18am 15 21 mph 1021.5mb 20f
3:12am 15 21 mph 1021.5mb 20f
3:06am 10 17 mph 1021.4mb 20f
3:00am 15 20 mph 1021.4mb 20f
2:54am 13 21 mph 1021.3mb 20f
2:48am 13 20 mph 1021.2mb 20f
2:42am 15 21 mph 1021.1mb 20f
2:36am 13 18 mph 1021.1mb 20f
2:30am 10 15 mph 1021mb 20f
2:24am 11 20 mph 1021.1mb 19f
2:18am 14 20 mph 1021mb 20f
2:12am 13 16 mph 1020.9mb 19f
2:06am 13 15 mph 1020.8mb 19f
2:00am 11 16 mph 1020.8mb 19f
1:54am 10 17 mph 1020.7mb 19f
1:48am 10 16 mph 1020.6mb 19f
1:42am 13 17 mph 1020.5mb 19f
1:36am 11 16 mph 1020.4mb 19f
1:30am 11 17 mph 1020.4mb 19f
1:24am 14 17 mph 1020.3mb 19f
1:18am 13 18 mph 1020.1mb 19f
1:12am 15 22 mph 1020.1mb 19f
1:06am 14 16 mph 1020mb 19f
1:00am 11 16 mph 1019.9mb 19f
12:54am 14 18 mph 1019.8mb 20f
12:48am 14 18 mph 1019.9mb 19f
12:42am 11 18 mph 1019.7mb 19f
12:36am 11 18 mph 1019.6mb 19f
12:30am 13 16 mph 1019.6mb 20f
12:24am 10 18 mph 1019.5mb 19f
12:18am 13 16 mph 1019.5mb 19f
12:12am 13 20 mph 1019.4mb 19f
12:06am 13 17 mph 1019.3mb 19f
12:00am 16 22 mph 1019.2mb 19f
Thu 11/20 11:54pm 9 16 mph 1019.2mb 19f
11:48pm 15 20 mph 1019.2mb 19f
11:42pm 9 18 mph 1019.1mb 19f
11:36pm 13 17 mph 1019mb 19f
11:30pm 14 20 mph 1018.9mb 19f
11:24pm 14 18 mph 1018.8mb 19f
11:18pm 14 20 mph 1018.7mb 19f
11:12pm 14 20 mph 1018.6mb 19f
11:06pm 16 21 mph 1018.5mb 19f
11:00pm 17 23 mph 1018.4mb 19f
10:54pm 15 20 mph 1018.3mb 19f
10:48pm 14 21 mph 1018.2mb 19f
10:42pm 14 23 mph 1018.2mb 19f
10:36pm 17 25 mph 1018mb 19f
10:30pm 15 21 mph 1017.9mb 19f
10:24pm 17 23 mph 1017.8mb 19f
10:18pm 20 28 mph 1017.7mb 19f
10:12pm 18 26 mph 1017.6mb 19f
10:06pm 17 25 mph 1017.6mb 19f
10:00pm 16 24 mph 1017.5mb 19f
9:54pm 20 26 mph 1017.4mb 19f
9:48pm 20 24 mph 1017.4mb 19f
9:42pm 17 26 mph 1017.4mb 19f
9:36pm 18 23 mph 1017.4mb 19f
9:30pm 18 24 mph 1017.3mb 19f
9:24pm 18 24 mph 1017.2mb 19f
9:18pm 21 28 mph 1017.2mb 19f
9:12pm 20 26 mph 1017.1mb 19f
9:06pm 17 25 mph 1017.1mb 19f
9:00pm 20 29 mph 1017mb 19f
8:54pm 17 25 mph 1016.9mb 19f
8:48pm 15 22 mph 1017mb 19f
8:42pm 16 25 mph 1016.9mb 19f
8:36pm 15 24 mph 1016.8mb 20f
8:30pm 15 26 mph 1016.7mb 20f
8:24pm 18 26 mph 1016.7mb 20f
8:18pm 18 24 mph 1016.6mb 20f
8:12pm 20 24 mph 1016.5mb 20f
8:06pm 20 29 mph 1016.4mb 20f
8:00pm 17 25 mph 1016.3mb 20f
7:54pm 21 28 mph 1016.2mb 20f
7:48pm 21 28 mph 1016.1mb 20f
7:42pm 18 29 mph 1016mb 20f
7:36pm 18 29 mph 1015.9mb 20f
7:30pm 16 28 mph 1015.9mb 20f
7:24pm 21 29 mph 1015.8mb 20f
7:18pm 17 26 mph 1015.7mb 20f
7:12pm 20 31 mph 1015.6mb 20f
7:06pm 24 30 mph 1015.4mb 21f
7:00pm 21 28 mph 1015.3mb 21f
6:54pm 15 25 mph 1015.2mb 21f
6:48pm 14 24 mph 1015.1mb 21f
6:42pm 18 29 mph 1015mb 21f
6:36pm 22 28 mph 1014.8mb 21f
6:30pm 14 29 mph 1014.7mb 21f
6:24pm 20 24 mph 1014.6mb 21f
6:18pm 18 25 mph 1014.5mb 21f
6:12pm 20 28 mph 1014.3mb 21f
6:06pm 21 29 mph 1014.2mb 21f
6:00pm 21 29 mph 1014.1mb 21f
5:48pm 20 31 mph 1013.9mb 21f
5:42pm 22 28 mph 1013.7mb 21f
5:36pm 18 31 mph 1013.6mb 21f
5:30pm 23 31 mph 1013.4mb 21f
5:24pm 22 31 mph 1013.3mb 21f
5:18pm 21 31 mph 1013.2mb 21f
5:12pm 18 30 mph 1013.1mb 22f
5:06pm 25 31 mph 1012.9mb 21f
5:00pm 23 31 mph 1012.8mb 21f
4:54pm 24 34 mph 1012.6mb 22f
4:48pm 26 34 mph 1012.5mb 22f
4:42pm 23 30 mph 1012.3mb 22f
4:36pm 23 36 mph 1012.2mb 22f
4:30pm 26 33 mph 1012mb 22f
4:24pm 22 33 mph 1011.8mb 22f
4:18pm 25 34 mph 1011.7mb 22f
4:12pm 28 39 mph 1011.5mb 22f
4:06pm 24 34 mph 1011.3mb 22f
4:00pm 26 33 mph 1011.2mb 22f
3:54pm 25 36 mph 1011.1mb 22f
3:48pm 23 33 mph 1010.9mb 23f
3:42pm 24 33 mph 1010.8mb 22f
3:36pm 23 31 mph 1010.7mb 23f